Home   Weather   Germany   Datteln   Past weeks
Flag for Germany

Past Weather in Datteln, North Rhine-Westphalia, Germany — Yesterday and Last 2 Weeks

Currently: 84 °F. Passing clouds. (Weather station: Dortmund / Wickede, Germany). See more current weather

Past Weather in Datteln — Graph

°F

Datteln Temperature Yesterday

Maximum temperature yesterday: 75 °F (at 2:50 pm)
Minimum temperature yesterday: 59 °F (at 5:50 am)
Average temperature yesterday: 68 °F

High & Low Weather Summary for the Past Weeks

 TemperatureHumidityPressure
High86 °F (Jun 16, 3:20 pm)100% (Jun 4, 1:20 am)30.36 "Hg (Jun 4, 1:20 am)
Low48 °F (Jun 13, 5:50 am)30% (Jun 2, 3:50 pm)29.89 "Hg (Jun 16, 4:20 pm)
Average67 °F68%30.13 "Hg
* Reported Jun 1 4:20 pm — Jun 16 4:20 pm, Datteln. Weather by CustomWeather, © 2021

Note: Actual official high and low records may vary slightly from our data, if they occured in-between our weather recording intervals... More about our weather records

Datteln Weather History for the Previous 24 Hours

Scroll right to see more
 ConditionsComfort  
Time TempWeatherWind HumidityBarometerVisibility
4:20 pm
Wed, Jun 16
84 °FPassing clouds.9 mph37%29.89 "HgN/A
3:50 pm84 °FPassing clouds.8 mph37%29.92 "HgN/A
3:20 pm86 °FSunny.5 mph35%29.92 "Hg10 mi
2:50 pm84 °FPassing clouds.9 mph43%29.92 "HgN/A
2:20 pm84 °FPassing clouds.8 mph48%29.92 "HgN/A
1:50 pm82 °FPassing clouds.8 mph51%29.95 "HgN/A
1:20 pm82 °FPassing clouds.8 mph48%29.95 "HgN/A
12:50 pm81 °FPassing clouds.9 mph51%29.95 "HgN/A
12:20 pm79 °FPassing clouds.9 mph51%29.98 "HgN/A
11:50 am75 °FSunny.8 mph54%29.98 "Hg10 mi
11:20 am75 °FPassing clouds.8 mph54%29.98 "HgN/A
10:50 am73 °FSunny.7 mph57%29.98 "Hg10 mi
10:20 am72 °FPassing clouds.6 mph61%29.98 "HgN/A
9:50 am70 °FPassing clouds.5 mph64%30.01 "HgN/A
9:20 am66 °FPassing clouds.3 mph68%30.01 "HgN/A
8:50 am64 °FSunny.2 mph73%30.01 "Hg10 mi
8:20 am64 °FSunny.No wind73%30.01 "Hg10 mi
7:50 am63 °FSunny.2 mph73%30.01 "Hg10 mi
7:20 am59 °FSunny.3 mph82%30.04 "Hg10 mi
6:50 am57 °FSunny.2 mph88%30.04 "Hg10 mi
6:20 am57 °FSunny.2 mph82%30.04 "Hg10 mi
5:50 am57 °FSunny.2 mph82%30.04 "Hg10 mi
5:20 am57 °FSunny.3 mph82%30.04 "Hg10 mi
4:50 am57 °FClear.2 mph82%30.04 "HgN/A
4:20 am57 °FClear.5 mph82%30.04 "HgN/A
3:50 am59 °FClear.2 mph77%30.04 "HgN/A
3:20 am59 °FClear.3 mph77%30.07 "HgN/A
2:50 am61 °FClear.3 mph72%30.07 "HgN/A
2:20 am61 °FClear.3 mph72%30.07 "HgN/A
1:50 am61 °FClear.No wind72%30.07 "HgN/A
1:20 am63 °FClear.3 mph68%30.07 "HgN/A
12:50 am64 °FClear.3 mph64%30.07 "HgN/A
12:20 am64 °FClear.3 mph60%30.09 "HgN/A
11:50 pm
Tue, Jun 15
64 °FClear.3 mph60%30.09 "HgN/A
11:20 pm66 °FClear.3 mph56%30.09 "HgN/A
10:50 pm66 °FClear.3 mph56%30.09 "Hg10 mi
10:20 pm68 °FClear.5 mph53%30.09 "Hg10 mi
9:50 pm70 °FPassing clouds.3 mph50%30.09 "HgN/A
9:20 pm70 °FSunny.5 mph50%30.09 "Hg10 mi
8:50 pm72 °FPassing clouds.5 mph47%30.09 "HgN/A
8:20 pm72 °FPassing clouds.6 mph47%30.09 "HgN/A
7:50 pm73 °FPassing clouds.5 mph44%30.09 "HgN/A
7:20 pm73 °FPassing clouds.6 mph41%30.09 "HgN/A
6:50 pm73 °FPassing clouds.5 mph41%30.09 "HgN/A
6:20 pm75 °FPassing clouds.5 mph39%30.09 "HgN/A
5:50 pm73 °FSunny.5 mph41%30.09 "Hg10 mi
5:20 pm75 °FPassing clouds.6 mph41%30.12 "HgN/A
Weather by CustomWeather, © 2021

See weather overview